Terminal Aerodrome Forecast
Issued by NWS

Home | Current Version | Previous Version | Text Only | Print | Product List | Glossary On
Versions: 1 2 3 4 5 6 7 8 9 10 11 12 13 14 15
000
FTUS43 KLSX 270905 AAA
TAFCPS
TAF AMD
KCPS 270905Z 2709/2806 VRB05KT 6SM -RA VCTS OVC035CB
      TEMPO 2711/2713 2SM TSRA OVC025CB
     FM271600 22006KT P6SM OVC040
     FM272000 24007KT P6SM VCTS BKN040CB
     FM280000 30007KT P6SM BKN040=

USA.gov is the U.S. government's official web portal to all federal, state and local government web resources and services.